Terminal Aerodrome Forecast
Issued by NWS Miami, FL

Home | Current Version | Previous Version | Text Only | Print | Product List | Glossary On
Versions: 1 2 3 4 5 6 7 8 9 10 11 12 13 14 15 16 17 18 19 20 21 22 23 24 25 26 27 28 29
000
FTUS42 KMFL 250856 AAB
TAFAPF
TAF AMD
KAPF 250856Z 2509/2606 VRB02KT 6SM BR BCFG FEW001 BKN015
     FM251300 VRB06KT P6SM FEW250
     FM251700 32007KT P6SM SCT040 SCT250
     FM260000 VRB04KT P6SM FEW250=

USA.gov is the U.S. government's official web portal to all federal, state and local government web resources and services.